Strona główna
METAR-TAF:

METAR-TAF

Lotnisko :

Port lotniczy Tân Sơn Nhất w Ho Chi Minh

Ho Chi Minh, Wietnam

Szerokość geograficzna: 10-49N, Długość geograficzna: 106-40E, wysokość: 19 m

Aktualna obserwacja pogody

Raport powstał 24 minut temu, godzina 18:00 UTC
Wiatr 3 kt z kierunków zmiennych
Temperatura 24°C
Wilgotność 89%
Ciśnienie 1013 hPa
Widzialność 10 km lub więcej
Mało chmury na wysokości 1700 ft
Rozproszone chmury na wysokości 5000 ft

METAR: VVTS 231800Z VRB03KT 9999 FEW017 SCT050 24/22 Q1013 NOSIG

czas: 01:24 (18:24 UTC)

Prognoza

Raport powstał 1 godzina i 24 minut temu, godzina 17:00 UTC
Prognoza ważna od 23 godzina 18 UTC do 24 godzina 24 UTC
Wiatr 2 kt z kierunków zmiennych
Widzialność 10 km lub więcej
Rozproszone chmury na wysokości 1700 ft
Rozproszone chmury na wysokości 4000 ft
Stopniowe zmiany
od 24 godzina 00 UTC do 24 godzina 01 UTC
Wiatr 10 kt od północny wschód

TAF: VVTS 231700Z 2318/2424 VRB02KT 9999 SCT017 SCT040 BECMG 2400/2401 05010KT

Obserwacja i prognoza pogody dla ponad 4000 lotnisk (raport METAR i TAF).

Dostępne stacje oznaczono żółtymi i czerwonymi punktami na mapie.

Najedź kursorem aby zobaczyć nazwę stacji.

Kliknij aby zobaczyć obserwacje i prognozy pogody.

Aby zmienić mapę: kliknij na zielony przycisk z czarnym krzyżykiem, aby powiększyć; na zielony przycisk z myślnikiem, aby pomniejszyć; na zielone strzałki, aby przejść do map sąsiednich.


METAR-TAF: